Time;durP1;ratioP1;P1;durP2;ratioP2;P2;SDS_P1;SDS_P2;PMS_P1;PMS_P2;Temp;Humidity;BMP_temperature;BMP_pressure;BME280_temperature;BME280_humidity;BME280_pressure;Samples;Min_cycle;Max_cycle;Signal;HPM_P1;HPM_P2
2023/05/07 00:00:21;;;;;;;49.13;29.88;;;;;;;;;;4976042;28;25174;-79
2023/05/07 00:02:48;;;;;;;47.13;29.92;;;;;;;;;;4960529;28;25073;-80
2023/05/07 00:05:14;;;;;;;48.83;31.95;;;;;;;;;;4962642;28;25069;-79
2023/05/07 00:07:40;;;;;;;41.78;27.98;;;;;;;;;;4960321;28;25112;-78
2023/05/07 00:10:06;;;;;;;48.58;30.80;;;;;;;;;;4959714;28;25104;-78
2023/05/07 00:12:33;;;;;;;42.65;29.63;;;;;;;;;;4962310;28;25201;-80
2023/05/07 00:15:00;;;;;;;52.33;32.05;;;;;;;;;;4968495;28;25124;-77
2023/05/07 00:17:27;;;;;;;46.03;30.20;;;;;;;;;;4968690;28;25056;-78
2023/05/07 00:19:53;;;;;;;51.90;32.85;;;;;;;;;;4968789;28;25046;-79
2023/05/07 00:22:19;;;;;;;50.33;30.63;;;;;;;;;;4965846;28;25065;-79
2023/05/07 00:24:45;;;;;;;60.25;34.50;;;;;;;;;;4967738;28;25163;-81
2023/05/07 00:27:11;;;;;;;51.05;32.95;;;;;;;;;;4958129;28;25073;-80
2023/05/07 00:29:37;;;;;;;50.97;32.33;;;;;;;;;;4960307;28;25076;-80
2023/05/07 00:32:03;;;;;;;56.10;33.13;;;;;;;;;;4964851;28;25083;-78
2023/05/07 00:34:29;;;;;;;50.92;32.92;;;;;;;;;;4970629;28;25053;-78
2023/05/07 00:36:55;;;;;;;48.40;33.95;;;;;;;;;;4967956;28;25098;-80
2023/05/07 00:39:21;;;;;;;60.63;33.53;;;;;;;;;;4972409;28;25076;-81
2023/05/07 00:41:47;;;;;;;51.17;32.90;;;;;;;;;;4964145;28;25054;-78
2023/05/07 00:44:14;;;;;;;47.30;30.08;;;;;;;;;;4958719;28;25070;-78
2023/05/07 00:46:40;;;;;;;50.38;32.60;;;;;;;;;;4961250;28;25101;-79
2023/05/07 00:49:06;;;;;;;51.55;31.58;;;;;;;;;;4959808;28;25073;-81
2023/05/07 00:51:33;;;;;;;40.35;28.98;;;;;;;;;;4962094;28;25090;-80
2023/05/07 00:54:01;;;;;;;48.13;30.27;;;;;;;;;;4965756;28;25088;-77
2023/05/07 00:56:27;;;;;;;45.85;29.85;;;;;;;;;;4965175;28;25176;-79
2023/05/07 00:58:53;;;;;;;43.30;27.63;;;;;;;;;;4960134;28;25073;-78
2023/05/07 01:01:19;;;;;;;41.97;25.90;;;;;;;;;;4960948;28;25076;-80
2023/05/07 01:03:45;;;;;;;40.13;27.30;;;;;;;;;;4955791;28;25128;-79
2023/05/07 01:06:13;;;;;;;38.17;26.23;;;;;;;;;;4959652;28;25141;-77
2023/05/07 01:08:39;;;;;;;36.30;24.02;;;;;;;;;;4959324;28;25066;-80
2023/05/07 01:11:06;;;;;;;33.05;22.58;;;;;;;;;;4970922;28;25087;-80
2023/05/07 01:13:32;;;;;;;35.97;23.30;;;;;;;;;;4959073;28;25070;-79
2023/05/07 01:15:58;;;;;;;34.17;23.15;;;;;;;;;;4963083;28;25083;-78
2023/05/07 01:18:25;;;;;;;36.42;22.48;;;;;;;;;;4971546;28;25095;-80
2023/05/07 01:20:52;;;;;;;33.88;23.40;;;;;;;;;;4967065;28;25162;-79
2023/05/07 01:23:18;;;;;;;37.58;23.85;;;;;;;;;;4973134;28;25138;-82
2023/05/07 01:25:51;;;;;;;34.42;23.83;;;;;;;;;;4970485;28;25054;-82
2023/05/07 01:28:17;;;;;;;32.53;22.50;;;;;;;;;;4976171;28;25082;-80
2023/05/07 01:30:45;;;;;;;23.98;19.50;;;;;;;;;;4966635;28;25063;-79
2023/05/07 01:33:13;;;;;;;29.65;20.52;;;;;;;;;;4968149;28;25070;-79
2023/05/07 01:35:42;;;;;;;30.33;20.15;;;;;;;;;;4972454;28;25064;-79
2023/05/07 01:38:08;;;;;;;30.80;21.15;;;;;;;;;;4962170;28;25084;-79
2023/05/07 01:40:34;;;;;;;29.13;21.17;;;;;;;;;;4963741;28;25069;-79
2023/05/07 01:43:01;;;;;;;26.80;19.25;;;;;;;;;;4969657;28;25087;-79
2023/05/07 01:45:28;;;;;;;32.15;21.60;;;;;;;;;;4967644;28;25102;-79
2023/05/07 01:47:55;;;;;;;33.45;20.88;;;;;;;;;;4970623;28;25091;-79
2023/05/07 01:50:21;;;;;;;28.40;21.75;;;;;;;;;;4964171;28;25086;-79
2023/05/07 01:52:48;;;;;;;30.75;22.13;;;;;;;;;;4963142;28;25094;-80
2023/05/07 01:55:14;;;;;;;28.70;20.80;;;;;;;;;;4978652;28;25078;-78
2023/05/07 01:57:40;;;;;;;25.15;20.35;;;;;;;;;;4959188;28;25105;-78
2023/05/07 02:00:06;;;;;;;26.88;20.35;;;;;;;;;;4958211;28;25106;-79
2023/05/07 02:02:32;;;;;;;25.55;20.63;;;;;;;;;;4958149;28;25055;-80
2023/05/07 02:04:59;;;;;;;27.25;20.75;;;;;;;;;;4957905;28;25063;-79
2023/05/07 02:07:25;;;;;;;26.88;19.17;;;;;;;;;;4962302;28;25087;-78
2023/05/07 02:09:50;;;;;;;26.50;18.65;;;17.50;99.90;;;;;;4951987;28;25067;-79
2023/05/07 02:12:16;;;;;;;25.70;18.50;;;;;;;;;;4977602;28;25082;-78
2023/05/07 02:14:42;;;;;;;22.23;17.65;;;;;;;;;;4952848;28;25068;-79
2023/05/07 02:17:08;;;;;;;22.10;17.52;;;;;;;;;;4957750;28;25092;-79
2023/05/07 02:19:35;;;;;;;28.10;18.35;;;;;;;;;;4961597;28;25072;-78
2023/05/07 02:22:01;;;;;;;24.05;16.98;;;;;;;;;;4961130;28;25085;-80
2023/05/07 02:24:27;;;;;;;21.00;16.60;;;;;;;;;;4961666;28;25108;-79
2023/05/07 02:26:52;;;;;;;20.85;16.25;;;;;;;;;;4954936;28;25087;-80
2023/05/07 02:29:18;;;;;;;19.05;15.25;;;;;;;;;;4955317;28;25065;-79
2023/05/07 02:31:44;;;;;;;21.38;16.75;;;;;;;;;;4954973;28;25072;-78
2023/05/07 02:34:10;;;;;;;17.50;15.32;;;;;;;;;;4958109;28;25088;-81
2023/05/07 02:36:36;;;;;;;22.42;15.93;;;;;;;;;;4957597;28;25065;-81
2023/05/07 02:39:03;;;;;;;23.65;15.63;;;;;;;;;;4958501;28;25064;-81
2023/05/07 02:41:29;;;;;;;24.58;15.65;;;;;;;;;;4971673;28;25058;-80
2023/05/07 02:43:55;;;;;;;25.38;16.88;;;;;;;;;;4970345;28;25081;-79
2023/05/07 02:46:21;;;;;;;21.98;15.65;;;;;;;;;;4963334;28;25072;-81
2023/05/07 02:48:47;;;;;;;21.92;15.23;;;;;;;;;;4976907;28;25061;-80
2023/05/07 02:51:13;;;;;;;22.33;14.93;;;;;;;;;;4969646;28;25085;-79
2023/05/07 02:53:39;;;;;;;20.77;15.02;;;;;;;;;;4963122;28;25063;-78
2023/05/07 02:56:06;;;;;;;22.67;15.27;;;;;;;;;;4966534;28;25066;-80
2023/05/07 02:58:33;;;;;;;20.95;14.70;;;;;;;;;;4976405;28;25089;-78
2023/05/07 03:00:59;;;;;;;19.95;14.35;;;;;;;;;;4963888;28;25107;-79
2023/05/07 03:03:25;;;;;;;20.77;14.80;;;;;;;;;;4970925;28;25079;-79
2023/05/07 03:05:51;;;;;;;20.20;14.13;;;;;;;;;;4959463;28;25064;-80
2023/05/07 03:08:17;;;;;;;20.98;14.05;;;;;;;;;;4963970;28;25071;-79
2023/05/07 03:10:43;;;;;;;20.83;14.07;;;;;;;;;;4964640;28;25045;-78
2023/05/07 03:13:10;;;;;;;24.33;15.93;;;;;;;;;;4966887;28;25084;-80
2023/05/07 03:15:36;;;;;;;19.60;15.23;;;;;;;;;;4972004;28;25112;-80
2023/05/07 03:18:02;;;;;;;20.92;15.68;;;;;;;;;;4971613;28;25091;-80
2023/05/07 03:20:28;;;;;;;19.95;15.05;;;;;;;;;;4969035;28;25074;-79
2023/05/07 03:22:54;;;;;;;21.85;15.82;;;;;;;;;;4960370;28;25072;-79
2023/05/07 03:25:20;;;;;;;24.25;14.75;;;;;;;;;;4962134;28;25064;-80
2023/05/07 03:27:46;;;;;;;23.27;15.35;;;;;;;;;;4959895;28;25122;-81
2023/05/07 03:30:12;;;;;;;20.95;14.45;;;;;;;;;;4963966;28;25106;-79
2023/05/07 03:32:38;;;;;;;22.75;15.85;;;;;;;;;;4959927;28;25072;-80
2023/05/07 03:35:04;;;;;;;24.95;15.43;;;;;;;;;;4961001;28;25056;-80
2023/05/07 03:37:30;;;;;;;24.45;15.73;;;;;;;;;;4961274;28;25095;-80
2023/05/07 03:39:56;;;;;;;19.55;14.00;;;;;;;;;;4963090;28;25084;-80
2023/05/07 03:42:22;;;;;;;24.08;15.13;;;;;;;;;;4958675;28;25059;-80
2023/05/07 03:44:48;;;;;;;24.33;15.15;;;;;;;;;;4957785;28;25113;-80
2023/05/07 03:47:15;;;;;;;23.95;15.27;;;;;;;;;;4956136;28;25049;-80
2023/05/07 03:49:40;;;;;;;26.63;15.05;;;;;;;;;;4959464;28;25350;-81
2023/05/07 03:52:07;;;;;;;19.30;14.35;;;;;;;;;;4960824;28;25077;-81
2023/05/07 03:54:33;;;;;;;24.50;14.55;;;;;;;;;;4972386;28;25076;-81
2023/05/07 03:57:00;;;;;;;21.80;14.27;;;;;;;;;;4973399;28;25076;-80
2023/05/07 03:59:26;;;;;;;26.15;14.65;;;;;;;;;;4957417;28;25083;-81
2023/05/07 04:01:52;;;;;;;22.27;15.13;;;;;;;;;;4960026;28;25073;-81
2023/05/07 04:04:18;;;;;;;20.92;13.93;;;;;;;;;;4965856;28;25060;-80
2023/05/07 04:06:44;;;;;;;17.60;14.07;;;;;;;;;;4960686;28;25048;-79
2023/05/07 04:09:10;;;;;;;20.40;13.95;;;;;;;;;;4967832;28;25073;-81
2023/05/07 04:11:36;;;;;;;22.15;15.02;;;;;;;;;;4960717;28;25076;-79
2023/05/07 04:14:02;;;;;;;22.58;14.95;;;;;;;;;;4965758;28;25059;-79
2023/05/07 04:16:28;;;;;;;22.88;14.85;;;;;;;;;;4967808;28;25062;-79
2023/05/07 04:18:54;;;;;;;23.10;14.98;;;;;;;;;;4961909;28;25056;-80
2023/05/07 04:21:21;;;;;;;24.85;15.68;;;;;;;;;;4981354;28;25081;-80
2023/05/07 04:23:47;;;;;;;20.58;14.68;;;;;;;;;;4967593;28;25051;-81
2023/05/07 04:26:13;;;;;;;25.23;16.25;;;;;;;;;;4970546;28;25062;-80
2023/05/07 04:28:40;;;;;;;24.10;15.75;;;;;;;;;;4986416;28;25077;-80
2023/05/07 04:31:06;;;;;;;21.15;14.30;;;;;;;;;;4975799;28;25044;-81
2023/05/07 04:33:32;;;;;;;22.10;15.57;;;;;;;;;;4979115;28;25089;-83
2023/05/07 04:36:02;;;;;;;19.25;14.23;;;;;;;;;;4992058;28;25050;-81
2023/05/07 04:38:31;;;;;;;21.63;14.80;;;;;;;;;;4980970;28;25050;-83
2023/05/07 04:40:57;;;;;;;21.60;14.77;;;;;;;;;;4982645;28;25063;-81
2023/05/07 04:43:23;;;;;;;22.20;15.80;;;;;;;;;;4969619;28;25070;-80
2023/05/07 04:45:50;;;;;;;19.10;14.90;;;;;;;;;;4968549;28;25057;-81
2023/05/07 04:48:18;;;;;;;24.40;16.08;;;;;;;;;;4973210;28;25060;-81
2023/05/07 04:50:45;;;;;;;19.02;14.13;;;;;;;;;;4960232;28;25107;-80
2023/05/07 04:53:11;;;;;;;25.73;15.60;;;;;;;;;;4968569;28;25081;-79
2023/05/07 04:55:36;;;;;;;24.63;16.73;;;;;;;;;;4967666;28;25090;-81
2023/05/07 04:58:02;;;;;;;22.88;15.90;;;;;;;;;;4963778;28;25127;-80
2023/05/07 05:00:28;;;;;;;22.40;15.50;;;;;;;;;;4974612;28;25074;-80
2023/05/07 05:02:56;;;;;;;22.90;15.25;;;;;;;;;;4968418;28;25052;-80
2023/05/07 05:05:22;;;;;;;27.15;16.33;;;;;;;;;;4963853;28;25065;-81
2023/05/07 05:07:48;;;;;;;22.45;15.50;;;;;;;;;;4985878;28;25052;-80
2023/05/07 05:10:14;;;;;;;25.00;16.83;;;;;;;;;;4978383;28;25092;-81
2023/05/07 05:12:40;;;;;;;24.55;16.33;;;;;;;;;;4969829;28;25083;-81
2023/05/07 05:15:06;;;;;;;30.88;17.98;;;;;;;;;;4960883;28;25069;-79
2023/05/07 05:17:34;;;;;;;29.45;18.80;;;;;;;;;;4964156;28;25083;-82
2023/05/07 05:20:00;;;;;;;27.50;18.42;;;;;;;;;;4967408;28;25074;-79
2023/05/07 05:22:29;;;;;;;28.88;18.05;;;;;;;;;;4963098;28;25105;-76
2023/05/07 05:24:55;;;;;;;24.23;17.38;;;;;;;;;;4964249;28;25163;-80
2023/05/07 05:27:21;;;;;;;27.83;18.00;;;;;;;;;;4965283;28;25087;-78
2023/05/07 05:29:47;;;;;;;28.63;17.80;;;;;;;;;;4966864;28;25145;-79
2023/05/07 05:32:13;;;;;;;25.67;18.25;;;;;;;;;;4962505;28;25074;-80
2023/05/07 05:34:39;;;;;;;30.10;18.73;;;;;;;;;;4964857;28;25057;-79
2023/05/07 05:37:05;;;;;;;26.50;19.65;;;;;;;;;;4961204;28;25078;-80
2023/05/07 05:39:31;;;;;;;28.48;18.08;;;;;;;;;;4973994;28;25069;-78
2023/05/07 05:41:57;;;;;;;27.50;18.25;;;;;;;;;;4961806;28;25067;-80
2023/05/07 05:44:23;;;;;;;27.40;19.33;;;;;;;;;;4981389;28;25061;-80
2023/05/07 05:46:49;;;;;;;29.40;19.77;;;;;;;;;;4967238;28;25093;-78
2023/05/07 05:49:15;;;;;;;29.25;18.50;;;;;;;;;;4975385;28;25136;-78
2023/05/07 05:51:41;;;;;;;32.25;19.52;;;;;;;;;;4968362;28;25062;-78
2023/05/07 05:54:07;;;;;;;25.98;18.63;;;;;;;;;;4977408;28;25057;-79
2023/05/07 05:56:33;;;;;;;29.00;18.17;;;;;;;;;;4978356;28;25074;-78
2023/05/07 05:59:00;;;;;;;31.70;19.45;;;;;;;;;;4978849;28;25086;-79
2023/05/07 06:01:26;;;;;;;30.02;19.63;;;;;;;;;;4974262;28;25069;-79
2023/05/07 06:03:52;;;;;;;34.47;19.58;;;;;;;;;;4960321;28;25061;-80
2023/05/07 06:06:18;;;;;;;31.45;20.33;;;;;;;;;;4963722;28;25151;-79
2023/05/07 06:08:44;;;;;;;31.55;21.67;;;;;;;;;;4963425;28;25057;-77
2023/05/07 06:11:10;;;;;;;34.50;21.33;;;;;;;;;;4968042;28;25066;-80
2023/05/07 06:13:36;;;;;;;36.58;22.80;;;;;;;;;;4956565;28;25055;-79
2023/05/07 06:16:02;;;;;;;36.25;24.42;;;;;;;;;;4956312;28;25076;-76
2023/05/07 06:18:28;;;;;;;34.88;23.48;;;;;;;;;;4969246;28;25053;-75
2023/05/07 06:20:54;;;;;;;38.60;24.67;;;;;;;;;;4955227;28;25068;-75
2023/05/07 06:23:20;;;;;;;44.70;27.20;;;;;;;;;;4960678;28;24996;-76
2023/05/07 06:25:50;;;;;;;45.10;27.27;;;;;;;;;;4955499;28;25276;-76
2023/05/07 06:28:16;;;;;;;42.15;28.00;;;;;;;;;;4952226;28;25057;-76
2023/05/07 06:30:42;;;;;;;42.30;28.38;;;;;;;;;;4949732;28;25078;-77
2023/05/07 06:33:08;;;;;;;49.08;29.10;;;;;;;;;;4946090;28;25082;-76
2023/05/07 06:35:34;;;;;;;46.50;29.13;;;;;;;;;;4951675;28;25097;-77
2023/05/07 06:38:00;;;;;;;54.42;30.90;;;;;;;;;;4949770;28;25009;-77
2023/05/07 06:40:26;;;;;;;49.58;32.72;;;;;;;;;;4955787;28;25098;-77
2023/05/07 06:42:52;;;;;;;45.60;29.30;;;;;;;;;;4949339;28;25072;-76
2023/05/07 06:45:18;;;;;;;44.08;28.67;;;;;;;;;;4945872;28;25058;-76
2023/05/07 06:47:44;;;;;;;47.55;30.70;;;;;;;;;;4946518;28;25100;-77
2023/05/07 06:50:10;;;;;;;49.75;33.20;;;;;;;;;;4952949;28;25119;-77
2023/05/07 06:52:36;;;;;;;45.40;29.55;;;;;;;;;;4949520;28;25182;-77
2023/05/07 06:55:02;;;;;;;50.92;32.85;;;;;;;;;;4947554;28;25116;-77
2023/05/07 06:57:28;;;;;;;55.30;32.10;;;;;;;;;;4946402;28;25072;-76
2023/05/07 06:59:54;;;;;;;45.80;30.92;;;;;;;;;;4949877;28;25011;-77
2023/05/07 07:02:20;;;;;;;47.65;30.40;;;;;;;;;;4945300;28;25118;-79
2023/05/07 07:04:46;;;;;;;45.10;29.60;;;;;;;;;;4962734;28;25177;-77
2023/05/07 07:07:12;;;;;;;46.45;30.63;;;;;;;;;;4955138;28;25166;-77
2023/05/07 07:09:38;;;;;;;43.90;29.98;;;;;;;;;;4948031;28;25071;-77
2023/05/07 07:12:04;;;;;;;44.75;27.80;;;;;;;;;;4955600;28;25125;-78
2023/05/07 07:14:30;;;;;;;42.33;28.42;;;;;;;;;;4965066;28;25060;-77
2023/05/07 07:16:56;;;;;;;42.72;27.52;;;;;;;;;;4951824;28;25099;-78
2023/05/07 07:19:22;;;;;;;42.40;29.38;;;;;;;;;;4945771;28;25124;-77
2023/05/07 07:21:48;;;;;;;49.75;30.52;;;;;;;;;;4946405;28;25075;-77
2023/05/07 07:24:18;;;;;;;44.33;29.33;;;;;;;;;;4949181;28;25074;-77
2023/05/07 07:26:44;;;;;;;41.78;29.35;;;18.90;99.90;;;;;;4946395;28;25047;-77
2023/05/07 07:29:10;;;;;;;45.47;30.50;;;;;;;;;;4950496;28;25096;-76
2023/05/07 07:31:36;;;;;;;48.13;29.40;;;;;;;;;;4946090;28;25076;-77
2023/05/07 07:34:03;;;;;;;48.38;31.15;;;;;;;;;;4946702;28;25068;-77
2023/05/07 07:36:29;;;;;;;43.45;30.15;;;;;;;;;;4946771;28;25106;-78
2023/05/07 07:38:55;;;;;;;43.08;28.92;;;;;;;;;;4952119;28;25144;-76
2023/05/07 07:41:21;;;;;;;46.13;31.00;;;;;;;;;;4945845;28;25079;-77
2023/05/07 07:43:47;;;;;;;43.50;30.33;;;;;;;;;;4946396;28;25062;-77
2023/05/07 07:46:13;;;;;;;54.40;31.73;;;;;;;;;;4947489;28;25097;-77
2023/05/07 07:48:39;;;;;;;46.20;31.17;;;;;;;;;;4949921;28;25067;-77
2023/05/07 07:51:05;;;;;;;43.08;31.10;;;;;;;;;;4954773;28;25090;-76
2023/05/07 07:53:31;;;;;;;48.33;31.45;;;;;;;;;;4966936;28;25078;-77
2023/05/07 07:55:57;;;;;;;44.63;30.65;;;;;;;;;;4968376;28;25107;-78
2023/05/07 07:58:24;;;;;;;43.65;30.77;;;;;;;;;;4955344;28;25137;-77
2023/05/07 08:00:50;;;;;;;44.63;30.23;;;;;;;;;;4954048;28;25095;-78
2023/05/07 08:03:17;;;;;;;46.60;30.58;;;;;;;;;;4951279;28;25086;-77
2023/05/07 08:05:43;;;;;;;49.25;31.75;;;;;;;;;;4951019;28;25051;-78
2023/05/07 08:08:09;;;;;;;42.95;29.92;;;;;;;;;;4951424;28;25051;-78
2023/05/07 08:10:38;;;;;;;41.97;29.90;;;;;;;;;;4956049;28;25069;-78
2023/05/07 08:13:04;;;;;;;40.10;29.45;;;;;;;;;;4953684;28;25069;-77
2023/05/07 08:15:30;;;;;;;41.58;28.42;;;;;;;;;;4952754;28;25089;-78
2023/05/07 08:18:00;;;;;;;42.30;28.55;;;;;;;;;;4953288;28;25101;-77
2023/05/07 08:20:26;;;;;;;42.17;29.23;;;;;;;;;;4956056;28;25093;-77
2023/05/07 08:22:52;;;;;;;34.75;26.40;;;;;;;;;;4959752;28;25067;-78
2023/05/07 08:25:18;;;;;;;35.95;26.63;;;;;;;;;;4966696;28;25111;-77
2023/05/07 08:27:44;;;;;;;45.25;27.67;;;;;;;;;;4952858;28;25093;-77
2023/05/07 08:30:11;;;;;;;39.63;28.17;;;;;;;;;;4950875;28;25070;-79
2023/05/07 08:32:36;;;;;;;40.05;25.92;;;;;;;;;;4954410;28;25086;-78
2023/05/07 08:35:03;;;;;;;35.70;25.42;;;;;;;;;;4957784;28;25086;-78
2023/05/07 08:37:29;;;;;;;35.80;25.40;;;;;;;;;;4950031;28;25088;-79
2023/05/07 08:39:55;;;;;;;36.88;25.23;;;;;;;;;;4965076;28;25159;-79
2023/05/07 08:42:21;;;;;;;36.92;24.45;;;;;;;;;;4953594;28;25071;-79
2023/05/07 08:44:47;;;;;;;35.88;24.23;;;;;;;;;;4952920;28;25051;-78
2023/05/07 08:47:14;;;;;;;35.70;23.45;;;;;;;;;;4952962;28;25095;-78
2023/05/07 08:49:40;;;;;;;29.27;21.67;;;;;;;;;;4950093;28;25066;-79
2023/05/07 08:52:06;;;;;;;27.52;21.00;;;;;;;;;;4948763;28;25080;-78
2023/05/07 08:54:32;;;;;;;24.73;18.27;;;;;;;;;;4955112;28;25081;-79
2023/05/07 08:56:59;;;;;;;26.83;18.85;;;;;;;;;;4959138;28;25178;-78
2023/05/07 08:59:25;;;;;;;22.17;18.35;;;;;;;;;;4952248;28;25124;-78
2023/05/07 09:01:51;;;;;;;24.60;18.35;;;;;;;;;;4953022;28;25081;-78
2023/05/07 09:04:17;;;;;;;23.17;17.27;;;;;;;;;;4954748;28;25069;-79
2023/05/07 09:06:43;;;;;;;23.70;17.70;;;;;;;;;;4957106;28;25067;-78
2023/05/07 09:09:09;;;;;;;21.33;16.10;;;;;;;;;;4954405;28;25084;-78
2023/05/07 09:11:35;;;;;;;19.45;15.32;;;;;;;;;;4953421;28;25081;-78
2023/05/07 09:14:02;;;;;;;23.63;15.80;;;;;;;;;;4950920;28;25098;-79
2023/05/07 09:16:30;;;;;;;20.40;14.50;;;;;;;;;;4952056;28;25067;-78
2023/05/07 09:18:57;;;;;;;19.38;14.07;;;;;;;;;;4953088;28;25043;-79
2023/05/07 09:21:23;;;;;;;16.13;12.05;;;;;;;;;;4953221;28;25088;-79
2023/05/07 09:23:53;;;;;;;18.58;13.00;;;;;;;;;;4961394;28;25139;-78
2023/05/07 09:26:21;;;;;;;14.95;12.75;;;;;;;;;;4970561;28;25078;-78
2023/05/07 09:28:47;;;;;;;17.48;12.73;;;;;;;;;;4960630;28;25062;-78
2023/05/07 09:31:13;;;;;;;16.95;13.10;;;;;;;;;;4955253;28;25139;-77
2023/05/07 09:33:40;;;;;;;17.65;13.75;;;;;;;;;;4955105;28;25055;-78
2023/05/07 09:36:07;;;;;;;18.83;13.73;;;;;;;;;;4953314;28;25151;-80
2023/05/07 09:38:36;;;;;;;16.67;12.23;;;;;;;;;;4960947;28;25129;-79
2023/05/07 09:41:03;;;;;;;18.08;13.10;;;;;;;;;;4952833;28;25140;-78
2023/05/07 09:43:33;;;;;;;16.20;13.13;;;;;;;;;;4953069;28;25067;-78
2023/05/07 09:46:01;;;;;;;15.93;11.93;;;;;;;;;;4963865;28;25164;-77
2023/05/07 09:48:27;;;;;;;17.20;13.32;;;;;;;;;;4954877;28;25064;-79
2023/05/07 09:50:58;;;;;;;16.70;13.23;;;;;;;;;;4958286;28;25072;-78
2023/05/07 09:53:25;;;;;;;15.15;12.02;;;;;;;;;;4953640;28;25152;-76
2023/05/07 09:55:51;;;;;;;18.52;13.07;;;;;;;;;;4955891;28;25075;-80
2023/05/07 09:58:19;;;;;;;18.48;13.38;;;;;;;;;;4961085;28;25068;-79
2023/05/07 10:00:46;;;;;;;17.10;11.60;;;;;;;;;;4961398;28;25070;-78
2023/05/07 10:03:12;;;;;;;15.65;11.02;;;;;;;;;;4953307;28;25059;-78
2023/05/07 10:05:39;;;;;;;15.25;11.32;;;;;;;;;;4954373;28;25101;-78
2023/05/07 10:08:05;;;;;;;15.73;11.55;;;;;;;;;;4958424;28;25071;-77
2023/05/07 10:10:31;;;;;;;16.48;11.63;;;;;;;;;;4976160;28;25046;-77
2023/05/07 10:12:57;;;;;;;14.60;11.18;;;;;;;;;;4960245;28;25066;-78
2023/05/07 10:15:24;;;;;;;12.25;10.93;;;;;;;;;;4956192;28;25063;-79
2023/05/07 10:17:51;;;;;;;16.65;13.20;;;;;;;;;;4957195;28;25127;-77
2023/05/07 10:20:17;;;;;;;15.57;12.75;;;;;;;;;;4953355;28;25066;-78
2023/05/07 10:22:44;;;;;;;17.35;11.00;;;;;;;;;;4952852;28;25091;-75
2023/05/07 10:25:15;;;;;;;12.15;9.95;;;;;;;;;;4950072;28;25102;-76
2023/05/07 10:27:42;;;;;;;12.07;8.75;;;;;;;;;;4949024;28;25080;-78
2023/05/07 10:30:27;;;;;;;16.65;10.38;;;;;;;;;;4962313;28;25110;-77
2023/05/07 10:32:55;;;;;;;15.27;10.80;;;;;;;;;;4963392;28;25070;-78
2023/05/07 10:35:23;;;;;;;16.45;9.68;;;;;;;;;;4953544;28;25054;-77
2023/05/07 10:37:49;;;;;;;14.65;10.80;;;;;;;;;;4956229;28;25060;-78
2023/05/07 10:40:17;;;;;;;17.13;10.30;;;;;;;;;;4954950;28;25074;-77
2023/05/07 10:43:00;;;;;;;15.07;11.60;;;;;;;;;;4967239;28;25070;-77
2023/05/07 10:45:26;;;;;;;13.88;9.20;;;;;;;;;;4972155;28;25045;-79
2023/05/07 10:48:11;;;;;;;13.85;9.93;;;;;;;;;;4980269;28;25089;-78
2023/05/07 10:50:38;;;;;;;15.25;10.00;;;;;;;;;;4975054;28;25069;-76
2023/05/07 10:53:19;;;;;;;20.55;10.43;;;;;;;;;;4959129;28;25075;-77
2023/05/07 10:55:52;;;;;;;12.50;8.47;;;;;;;;;;4951877;28;25065;-78
2023/05/07 10:58:31;;;;;;;14.85;9.82;;;;;;;;;;4961208;28;25145;-78
2023/05/07 11:01:03;;;;;;;14.00;10.20;;;;;;;;;;4961122;28;25133;-77
2023/05/07 11:03:30;;;;;;;12.65;9.23;;;;;;;;;;4961489;28;25082;-77
2023/05/07 11:06:12;;;;;;;12.77;9.30;;;;;;;;;;4956096;28;25094;-77
2023/05/07 11:08:54;;;;;;;10.65;8.30;;;;;;;;;;4950754;28;25134;-76
2023/05/07 11:11:20;;;;;;;12.67;8.87;;;;;;;;;;4950572;28;25074;-77
2023/05/07 11:13:46;;;;;;;9.30;6.70;;;;;;;;;;4961059;28;25175;-77
2023/05/07 11:16:27;;;;;;;16.02;8.20;;;;;;;;;;4952074;28;25060;-77
2023/05/07 11:18:54;;;;;;;11.63;7.85;;;;;;;;;;4944543;28;25079;-77
2023/05/07 11:21:33;;;;;;;12.98;7.97;;;;;;;;;;4948279;28;25056;-79
2023/05/07 11:24:00;;;;;;;15.15;9.50;;;;;;;;;;4947459;28;25153;-77
2023/05/07 11:26:26;;;;;;;12.43;8.20;;;;;;;;;;4959107;28;25146;-78
2023/05/07 11:28:53;;;;;;;14.05;7.35;;;;;;;;;;4951475;28;25071;-78
2023/05/07 11:31:23;;;;;;;11.00;7.95;;;;;;;;;;4947346;28;25122;-78
2023/05/07 11:33:49;;;;;;;14.27;7.28;;;;;;;;;;4948376;28;25080;-76
2023/05/07 11:36:15;;;;;;;11.82;7.00;;;;;;;;;;4954343;28;25058;-76
2023/05/07 11:38:41;;;;;;;11.05;6.78;;;;;;;;;;4955059;28;25060;-77
2023/05/07 11:41:08;;;;;;;10.95;7.43;;;;;;;;;;4955741;28;25081;-75
2023/05/07 11:43:35;;;;;;;7.43;5.88;;;;;;;;;;4949009;28;25095;-77
2023/05/07 11:46:11;;;;;;;8.95;6.82;;;;;;;;;;4956539;28;25061;-78
2023/05/07 11:48:37;;;;;;;9.07;6.82;;;;;;;;;;4972036;28;25127;-79
2023/05/07 11:51:04;;;;;;;8.68;6.63;;;;;;;;;;4951554;28;25080;-75
2023/05/07 11:53:56;;;;;;;15.65;8.82;;;;;;;;;;4947742;28;25072;-77
2023/05/07 11:56:22;;;;;;;13.13;8.25;;;;;;;;;;4945606;28;25073;-78
2023/05/07 11:58:49;;;;;;;14.82;8.57;;;;;;;;;;4950939;28;25063;-76
2023/05/07 12:01:16;;;;;;;10.43;8.52;;;;;;;;;;4955053;28;25151;-76
2023/05/07 12:03:43;;;;;;;10.95;6.32;;;;;;;;;;4953742;28;25074;-77
2023/05/07 12:06:09;;;;;;;17.95;8.43;;;;;;;;;;4954439;28;25117;-76
2023/05/07 12:08:39;;;;;;;12.32;8.40;;;;;;;;;;4954169;28;25066;-76
2023/05/07 12:11:08;;;;;;;13.02;7.82;;;;;;;;;;4947685;28;25086;-77
2023/05/07 12:13:34;;;;;;;17.35;7.05;;;;;;;;;;4947837;28;25065;-76
2023/05/07 12:16:03;;;;;;;9.90;6.45;;;;;;;;;;4947443;28;25073;-77
2023/05/07 12:18:29;;;;;;;10.73;6.30;;;;;;;;;;4959265;28;25083;-78
2023/05/07 12:20:56;;;;;;;10.27;6.13;;;;;;;;;;4949362;28;25078;-78
2023/05/07 12:23:22;;;;;;;11.40;7.55;;;;;;;;;;4947195;28;25138;-77
2023/05/07 12:25:49;;;;;;;11.48;6.88;;;;;;;;;;4949066;28;25056;-78
2023/05/07 12:28:15;;;;;;;14.20;7.97;;;;;;;;;;4947524;28;25094;-78
2023/05/07 12:30:43;;;;;;;13.68;7.07;;;;;;;;;;4946194;28;25102;-75
2023/05/07 12:33:09;;;;;;;13.63;9.65;;;;;;;;;;4948653;28;25071;-77
2023/05/07 12:35:39;;;;;;;19.73;9.80;;;;;;;;;;4950064;28;25140;-77
2023/05/07 12:38:08;;;;;;;17.20;9.90;;;;;;;;;;4958419;28;25153;-77
2023/05/07 12:40:41;;;;;;;22.90;13.13;;;;;;;;;;4949720;28;25143;-75
2023/05/07 12:43:08;;;;;;;27.20;16.00;;;;;;;;;;4953305;28;25063;-75
2023/05/07 12:45:42;;;;;;;25.27;17.40;;;;;;;;;;4958738;28;25145;-77
2023/05/07 12:48:10;;;;;;;33.72;17.50;;;;;;;;;;4953722;28;25134;-76
2023/05/07 12:50:35;;;;;;;22.77;15.23;;;;;;;;;;4944947;28;25065;-77
2023/05/07 12:53:05;;;;;;;26.17;16.52;;;;;;;;;;4952466;28;25062;-77
2023/05/07 12:55:31;;;;;;;25.27;15.77;;;;;;;;;;4950767;28;25076;-76
2023/05/07 12:57:58;;;;;;;25.05;15.40;;;;;;;;;;4949610;28;25139;-78
2023/05/07 13:00:39;;;;;;;22.63;14.82;;;;;;;;;;4948489;28;25089;-77
2023/05/07 13:03:05;;;;;;;21.57;14.17;;;;;;;;;;4950359;28;25416;-78
2023/05/07 13:05:32;;;;;;;24.38;15.20;;;;;;;;;;4949053;28;25148;-75
2023/05/07 13:07:58;;;;;;;22.85;13.43;;;;;;;;;;4952680;28;25172;-75
2023/05/07 13:10:24;;;;;;;22.80;13.63;;;;;;;;;;4949194;28;25091;-75
2023/05/07 13:12:51;;;;;;;23.75;15.07;;;;;;;;;;4950263;28;25112;-74
2023/05/07 13:15:17;;;;;;;20.42;13.80;;;;;;;;;;4954924;28;25078;-75
2023/05/07 13:17:43;;;;;;;25.58;14.63;;;;;;;;;;4949343;28;25074;-75
2023/05/07 13:20:12;;;;;;;23.90;13.30;;;;;;;;;;4948833;28;25145;-73
2023/05/07 13:22:38;;;;;;;22.15;12.23;;;;;;;;;;4955539;28;25061;-74
2023/05/07 13:25:05;;;;;;;17.55;12.55;;;;;;;;;;4948149;28;25071;-73
2023/05/07 13:27:31;;;;;;;19.52;14.18;;;;;;;;;;4953049;28;25153;-75
2023/05/07 13:29:57;;;;;;;21.33;14.98;;;;;;;;;;4949979;28;25162;-75
2023/05/07 13:32:23;;;;;;;21.35;15.25;;;;;;;;;;4949076;28;25068;-74
2023/05/07 13:34:49;;;;;;;23.80;14.70;;;;;;;;;;4952183;28;25090;-75
2023/05/07 13:37:15;;;;;;;21.52;13.50;;;;;;;;;;4950880;28;25097;-74
2023/05/07 13:39:41;;;;;;;19.88;14.30;;;;;;;;;;4948712;28;25067;-73
2023/05/07 13:42:07;;;;;;;19.83;14.52;;;;;;;;;;4949548;28;25063;-75
2023/05/07 13:44:33;;;;;;;22.73;15.07;;;;;;;;;;4949492;28;25076;-74
2023/05/07 13:47:00;;;;;;;24.95;16.05;;;;;;;;;;4951347;28;25139;-73
2023/05/07 13:49:26;;;;;;;23.85;16.85;;;;;;;;;;4951819;28;25077;-70
2023/05/07 13:51:52;;;;;;;33.17;17.92;;;;;;;;;;4949353;28;25083;-77
2023/05/07 13:54:18;;;;;;;23.80;17.77;;;;;;;;;;4954617;28;25086;-77
2023/05/07 13:56:44;;;;;;;28.65;20.75;;;;;;;;;;4960324;28;25070;-76
2023/05/07 13:59:10;;;;;;;28.85;18.45;;;;;;;;;;4951408;28;25152;-75
2023/05/07 14:01:36;;;;;;;26.17;19.05;;;;;;;;;;4955679;28;25093;-74
2023/05/07 14:04:02;;;;;;;28.63;20.38;;;;;;;;;;4955223;28;25131;-77
2023/05/07 14:06:27;;;;;;;27.33;18.02;;;;;;;;;;4960044;28;25093;-75
2023/05/07 14:08:53;;;;;;;27.38;18.05;;;;;;;;;;4957636;28;25121;-75
2023/05/07 14:11:20;;;;;;;27.25;20.25;;;;;;;;;;4963816;28;25071;-78
2023/05/07 14:13:46;;;;;;;29.77;21.88;;;;;;;;;;4963202;28;25158;-75
2023/05/07 14:16:12;;;;;;;42.08;27.77;;;;;;;;;;4951223;28;25186;-74